sensor_id;sensor_type;location;lat;lon;timestamp;pressure;altitude;pressure_sealevel;temperature;humidity
32197;BME280;18697;42.770;23.400;2023-04-28T00:00:26;95852.25;;;8.07;58.55
32197;BME280;18697;42.770;23.400;2023-04-28T00:02:52;95857.03;;;8.06;58.56
32197;BME280;18697;42.770;23.400;2023-04-28T00:05:18;95850.06;;;8.02;58.30
32197;BME280;18697;42.770;23.400;2023-04-28T00:07:43;95853.25;;;8.00;57.93
32197;BME280;18697;42.770;23.400;2023-04-28T00:10:09;95860.00;;;7.99;57.94
32197;BME280;18697;42.770;23.400;2023-04-28T00:12:34;95857.31;;;7.83;57.64
32197;BME280;18697;42.770;23.400;2023-04-28T00:15:00;95857.19;;;7.74;58.18
32197;BME280;18697;42.770;23.400;2023-04-28T00:17:25;95848.47;;;7.75;58.45
32197;BME280;18697;42.770;23.400;2023-04-28T00:19:50;95855.88;;;7.78;58.34
32197;BME280;18697;42.770;23.400;2023-04-28T00:22:17;95862.63;;;7.77;58.32
32197;BME280;18697;42.770;23.400;2023-04-28T00:24:43;95860.31;;;7.76;57.99
32197;BME280;18697;42.770;23.400;2023-04-28T00:27:09;95872.78;;;7.68;57.63
32197;BME280;18697;42.770;23.400;2023-04-28T00:29:35;95872.53;;;7.62;57.81
32197;BME280;18697;42.770;23.400;2023-04-28T00:32:01;95866.03;;;7.69;58.25
32197;BME280;18697;42.770;23.400;2023-04-28T00:34:27;95865.25;;;7.68;58.08
32197;BME280;18697;42.770;23.400;2023-04-28T00:36:54;95867.16;;;7.71;58.38
32197;BME280;18697;42.770;23.400;2023-04-28T00:39:19;95874.81;;;7.80;58.75
32197;BME280;18697;42.770;23.400;2023-04-28T00:41:46;95868.59;;;7.76;58.54
32197;BME280;18697;42.770;23.400;2023-04-28T00:44:12;95871.03;;;7.74;58.53
32197;BME280;18697;42.770;23.400;2023-04-28T00:46:37;95874.78;;;7.67;58.70
32197;BME280;18697;42.770;23.400;2023-04-28T00:49:03;95878.41;;;7.64;58.54
32197;BME280;18697;42.770;23.400;2023-04-28T00:51:28;95870.91;;;7.65;58.43
32197;BME280;18697;42.770;23.400;2023-04-28T00:53:55;95875.66;;;7.64;58.09
32197;BME280;18697;42.770;23.400;2023-04-28T00:56:20;95874.59;;;7.45;58.40
32197;BME280;18697;42.770;23.400;2023-04-28T00:58:46;95882.25;;;7.41;58.54
32197;BME280;18697;42.770;23.400;2023-04-28T01:01:11;95885.09;;;7.38;58.61
32197;BME280;18697;42.770;23.400;2023-04-28T01:03:38;95891.47;;;7.06;59.50
32197;BME280;18697;42.770;23.400;2023-04-28T01:06:05;95884.94;;;7.00;60.06
32197;BME280;18697;42.770;23.400;2023-04-28T01:08:31;95886.31;;;6.91;60.35
32197;BME280;18697;42.770;23.400;2023-04-28T01:10:57;95889.00;;;6.95;60.39
32197;BME280;18697;42.770;23.400;2023-04-28T01:13:23;95894.50;;;6.95;60.81
32197;BME280;18697;42.770;23.400;2023-04-28T01:15:49;95890.97;;;6.95;60.81
32197;BME280;18697;42.770;23.400;2023-04-28T01:18:15;95899.84;;;7.02;60.37
32197;BME280;18697;42.770;23.400;2023-04-28T01:20:41;95886.66;;;6.93;60.03
32197;BME280;18697;42.770;23.400;2023-04-28T01:23:14;95895.91;;;6.87;60.56
32197;BME280;18697;42.770;23.400;2023-04-28T01:25:41;95892.97;;;6.94;60.64
32197;BME280;18697;42.770;23.400;2023-04-28T01:28:07;95897.81;;;6.90;60.44
32197;BME280;18697;42.770;23.400;2023-04-28T01:30:32;95889.53;;;6.74;60.72
32197;BME280;18697;42.770;23.400;2023-04-28T01:32:57;95891.38;;;6.48;61.27
32197;BME280;18697;42.770;23.400;2023-04-28T01:35:23;95896.44;;;6.33;62.12
32197;BME280;18697;42.770;23.400;2023-04-28T01:37:48;95896.28;;;6.40;62.51
32197;BME280;18697;42.770;23.400;2023-04-28T01:40:14;95892.06;;;6.52;62.24
32197;BME280;18697;42.770;23.400;2023-04-28T01:42:39;95886.03;;;6.41;62.08
32197;BME280;18697;42.770;23.400;2023-04-28T01:45:05;95889.81;;;6.31;62.12
32197;BME280;18697;42.770;23.400;2023-04-28T01:47:31;95896.34;;;6.37;62.43
32197;BME280;18697;42.770;23.400;2023-04-28T01:49:56;95894.88;;;6.32;62.06
32197;BME280;18697;42.770;23.400;2023-04-28T01:52:22;95898.69;;;6.38;62.17
32197;BME280;18697;42.770;23.400;2023-04-28T01:54:49;95896.03;;;6.51;61.75
32197;BME280;18697;42.770;23.400;2023-04-28T01:57:14;95895.44;;;6.59;61.12
32197;BME280;18697;42.770;23.400;2023-04-28T01:59:40;95899.81;;;6.57;60.99
32197;BME280;18697;42.770;23.400;2023-04-28T02:02:05;95902.41;;;6.64;61.24
32197;BME280;18697;42.770;23.400;2023-04-28T02:04:31;95899.66;;;6.64;61.19
32197;BME280;18697;42.770;23.400;2023-04-28T02:06:56;95897.59;;;6.68;61.02
32197;BME280;18697;42.770;23.400;2023-04-28T02:09:21;95901.44;;;6.71;60.56
32197;BME280;18697;42.770;23.400;2023-04-28T02:11:47;95898.78;;;6.67;60.28
32197;BME280;18697;42.770;23.400;2023-04-28T02:14:12;95907.06;;;6.67;60.42
32197;BME280;18697;42.770;23.400;2023-04-28T02:16:38;95898.44;;;6.65;60.46
32197;BME280;18697;42.770;23.400;2023-04-28T02:19:03;95907.59;;;6.62;59.90
32197;BME280;18697;42.770;23.400;2023-04-28T02:21:29;95910.69;;;6.64;60.31
32197;BME280;18697;42.770;23.400;2023-04-28T02:23:55;95903.72;;;6.59;60.41
32197;BME280;18697;42.770;23.400;2023-04-28T02:26:20;95908.72;;;6.65;60.54
32197;BME280;18697;42.770;23.400;2023-04-28T02:28:46;95914.22;;;6.65;60.66
32197;BME280;18697;42.770;23.400;2023-04-28T02:31:13;95907.59;;;6.62;61.28
32197;BME280;18697;42.770;23.400;2023-04-28T02:33:39;95913.78;;;6.66;61.13
32197;BME280;18697;42.770;23.400;2023-04-28T02:36:06;95919.31;;;6.66;61.10
32197;BME280;18697;42.770;23.400;2023-04-28T02:38:32;95917.75;;;6.65;61.17
32197;BME280;18697;42.770;23.400;2023-04-28T02:41:03;95920.09;;;6.67;60.81
32197;BME280;18697;42.770;23.400;2023-04-28T02:43:32;95922.94;;;6.63;60.75
32197;BME280;18697;42.770;23.400;2023-04-28T02:45:58;95933.28;;;6.59;61.20
32197;BME280;18697;42.770;23.400;2023-04-28T02:48:24;95938.28;;;6.64;61.10
32197;BME280;18697;42.770;23.400;2023-04-28T02:50:49;95929.25;;;6.64;60.67
32197;BME280;18697;42.770;23.400;2023-04-28T02:53:15;95929.13;;;6.51;60.20
32197;BME280;18697;42.770;23.400;2023-04-28T02:55:40;95940.09;;;6.54;60.65
32197;BME280;18697;42.770;23.400;2023-04-28T02:58:06;95928.59;;;6.40;60.93
32197;BME280;18697;42.770;23.400;2023-04-28T03:00:32;95942.91;;;6.35;61.77
32197;BME280;18697;42.770;23.400;2023-04-28T03:02:57;95936.50;;;6.21;61.43
32197;BME280;18697;42.770;23.400;2023-04-28T03:05:23;95932.34;;;6.13;61.30
32197;BME280;18697;42.770;23.400;2023-04-28T03:07:48;95933.22;;;6.10;61.54
32197;BME280;18697;42.770;23.400;2023-04-28T03:10:14;95940.06;;;6.02;61.40
32197;BME280;18697;42.770;23.400;2023-04-28T03:12:39;95949.97;;;6.00;61.39
32197;BME280;18697;42.770;23.400;2023-04-28T03:15:05;95941.28;;;6.01;61.54
32197;BME280;18697;42.770;23.400;2023-04-28T03:17:33;95941.91;;;6.09;61.44
32197;BME280;18697;42.770;23.400;2023-04-28T03:19:58;95946.06;;;6.17;61.46
32197;BME280;18697;42.770;23.400;2023-04-28T03:22:24;95951.50;;;6.20;61.45
32197;BME280;18697;42.770;23.400;2023-04-28T03:24:49;95952.78;;;6.16;61.55
32197;BME280;18697;42.770;23.400;2023-04-28T03:27:14;95956.91;;;6.08;61.47
32197;BME280;18697;42.770;23.400;2023-04-28T03:29:40;95966.78;;;6.05;61.61
32197;BME280;18697;42.770;23.400;2023-04-28T03:32:05;95969.91;;;6.07;61.26
32197;BME280;18697;42.770;23.400;2023-04-28T03:34:31;95969.88;;;5.91;61.46
32197;BME280;18697;42.770;23.400;2023-04-28T03:36:56;95974.63;;;5.90;61.46
32197;BME280;18697;42.770;23.400;2023-04-28T03:39:21;95988.56;;;6.00;61.77
32197;BME280;18697;42.770;23.400;2023-04-28T03:41:47;95992.72;;;5.91;61.87
32197;BME280;18697;42.770;23.400;2023-04-28T03:44:12;95992.28;;;5.93;61.88
32197;BME280;18697;42.770;23.400;2023-04-28T03:46:37;95989.72;;;6.02;62.12
32197;BME280;18697;42.770;23.400;2023-04-28T03:49:04;96001.22;;;5.97;61.87
32197;BME280;18697;42.770;23.400;2023-04-28T03:51:30;95999.09;;;6.05;61.86
32197;BME280;18697;42.770;23.400;2023-04-28T03:53:57;96009.56;;;6.13;61.71
32197;BME280;18697;42.770;23.400;2023-04-28T03:56:22;96007.25;;;6.12;61.40
32197;BME280;18697;42.770;23.400;2023-04-28T03:58:48;96011.06;;;6.18;60.95
32197;BME280;18697;42.770;23.400;2023-04-28T04:01:13;96019.59;;;6.23;60.90
32197;BME280;18697;42.770;23.400;2023-04-28T04:03:39;96015.28;;;6.22;60.83
32197;BME280;18697;42.770;23.400;2023-04-28T04:06:05;96021.31;;;6.17;60.70
32197;BME280;18697;42.770;23.400;2023-04-28T04:08:31;96027.88;;;6.04;61.37
32197;BME280;18697;42.770;23.400;2023-04-28T04:10:57;96024.22;;;6.10;61.92
32197;BME280;18697;42.770;23.400;2023-04-28T04:13:23;96021.94;;;6.05;61.46
32197;BME280;18697;42.770;23.400;2023-04-28T04:15:48;96033.69;;;6.09;61.94
32197;BME280;18697;42.770;23.400;2023-04-28T04:18:15;96031.28;;;6.11;62.06
32197;BME280;18697;42.770;23.400;2023-04-28T04:20:40;96033.25;;;6.11;61.95
32197;BME280;18697;42.770;23.400;2023-04-28T04:23:05;96033.25;;;6.11;62.04
32197;BME280;18697;42.770;23.400;2023-04-28T04:25:31;96047.63;;;6.22;62.03
32197;BME280;18697;42.770;23.400;2023-04-28T04:27:57;96039.91;;;6.33;61.80
32197;BME280;18697;42.770;23.400;2023-04-28T04:30:23;96031.91;;;6.39;61.74
32197;BME280;18697;42.770;23.400;2023-04-28T04:32:50;96040.31;;;6.51;61.24
32197;BME280;18697;42.770;23.400;2023-04-28T04:35:15;96031.50;;;6.56;60.89
32197;BME280;18697;42.770;23.400;2023-04-28T04:37:41;96042.91;;;6.58;60.90
32197;BME280;18697;42.770;23.400;2023-04-28T04:40:07;96043.34;;;6.73;60.77
32197;BME280;18697;42.770;23.400;2023-04-28T04:42:33;96038.50;;;6.77;61.08
32197;BME280;18697;42.770;23.400;2023-04-28T04:44:58;96040.25;;;6.87;60.81
32197;BME280;18697;42.770;23.400;2023-04-28T04:47:24;96043.63;;;6.95;60.09
32197;BME280;18697;42.770;23.400;2023-04-28T04:49:50;96048.91;;;7.06;59.87
32197;BME280;18697;42.770;23.400;2023-04-28T04:52:15;96051.84;;;7.15;58.70
32197;BME280;18697;42.770;23.400;2023-04-28T04:54:40;96051.50;;;7.13;58.36
32197;BME280;18697;42.770;23.400;2023-04-28T04:57:06;96056.34;;;7.09;58.94
32197;BME280;18697;42.770;23.400;2023-04-28T04:59:32;96059.28;;;7.18;59.34
32197;BME280;18697;42.770;23.400;2023-04-28T05:01:57;96059.03;;;7.29;59.75
32197;BME280;18697;42.770;23.400;2023-04-28T05:04:22;96056.94;;;7.16;59.66
32197;BME280;18697;42.770;23.400;2023-04-28T05:06:48;96069.63;;;7.14;60.14
32197;BME280;18697;42.770;23.400;2023-04-28T05:09:13;96067.81;;;7.23;60.10
32197;BME280;18697;42.770;23.400;2023-04-28T05:11:39;96060.31;;;7.24;60.16
32197;BME280;18697;42.770;23.400;2023-04-28T05:14:05;96069.47;;;7.37;60.30
32197;BME280;18697;42.770;23.400;2023-04-28T05:16:30;96067.72;;;7.43;60.09
32197;BME280;18697;42.770;23.400;2023-04-28T05:18:56;96069.09;;;7.51;60.42
32197;BME280;18697;42.770;23.400;2023-04-28T05:21:21;96068.56;;;7.56;60.51
32197;BME280;18697;42.770;23.400;2023-04-28T05:23:47;96065.28;;;7.62;59.86
32197;BME280;18697;42.770;23.400;2023-04-28T05:26:12;96069.66;;;7.75;60.41
32197;BME280;18697;42.770;23.400;2023-04-28T05:28:39;96062.31;;;7.85;60.20
32197;BME280;18697;42.770;23.400;2023-04-28T05:31:05;96069.97;;;7.94;59.22
32197;BME280;18697;42.770;23.400;2023-04-28T05:33:30;96064.88;;;7.92;59.00
32197;BME280;18697;42.770;23.400;2023-04-28T05:35:56;96068.13;;;8.03;59.03
32197;BME280;18697;42.770;23.400;2023-04-28T05:38:21;96066.19;;;8.16;59.57
32197;BME280;18697;42.770;23.400;2023-04-28T05:40:47;96068.19;;;8.29;58.86
32197;BME280;18697;42.770;23.400;2023-04-28T05:43:12;96069.16;;;8.38;58.09
32197;BME280;18697;42.770;23.400;2023-04-28T05:45:38;96075.19;;;8.62;57.45
32197;BME280;18697;42.770;23.400;2023-04-28T05:48:04;96063.59;;;8.80;55.98
32197;BME280;18697;42.770;23.400;2023-04-28T05:50:29;96068.22;;;8.96;55.94
32197;BME280;18697;42.770;23.400;2023-04-28T05:52:55;96067.56;;;9.04;54.00
32197;BME280;18697;42.770;23.400;2023-04-28T05:55:21;96067.81;;;8.84;53.33
32197;BME280;18697;42.770;23.400;2023-04-28T05:57:46;96066.13;;;9.00;53.13
32197;BME280;18697;42.770;23.400;2023-04-28T06:00:13;96068.34;;;9.17;53.13
32197;BME280;18697;42.770;23.400;2023-04-28T06:02:38;96069.34;;;9.23;53.14
32197;BME280;18697;42.770;23.400;2023-04-28T06:05:04;96069.22;;;9.40;52.60
32197;BME280;18697;42.770;23.400;2023-04-28T06:07:29;96074.84;;;9.62;53.08
32197;BME280;18697;42.770;23.400;2023-04-28T06:09:55;96062.38;;;9.66;52.55
32197;BME280;18697;42.770;23.400;2023-04-28T06:12:20;96063.72;;;9.96;52.25
32197;BME280;18697;42.770;23.400;2023-04-28T06:14:45;96062.06;;;9.99;51.80
32197;BME280;18697;42.770;23.400;2023-04-28T06:17:11;96057.38;;;10.08;51.57
32197;BME280;18697;42.770;23.400;2023-04-28T06:19:36;96069.44;;;10.14;52.34
32197;BME280;18697;42.770;23.400;2023-04-28T06:22:01;96066.31;;;10.25;51.46
32197;BME280;18697;42.770;23.400;2023-04-28T06:24:27;96068.44;;;10.43;50.45
32197;BME280;18697;42.770;23.400;2023-04-28T06:26:53;96064.94;;;10.51;49.00
32197;BME280;18697;42.770;23.400;2023-04-28T06:29:18;96065.25;;;10.53;48.75
32197;BME280;18697;42.770;23.400;2023-04-28T06:31:46;96061.03;;;10.71;49.60
32197;BME280;18697;42.770;23.400;2023-04-28T06:34:11;96072.06;;;10.83;48.28
32197;BME280;18697;42.770;23.400;2023-04-28T06:36:36;96063.84;;;11.02;47.44
32197;BME280;18697;42.770;23.400;2023-04-28T06:39:01;96060.47;;;11.16;48.24
32197;BME280;18697;42.770;23.400;2023-04-28T06:41:27;96064.66;;;10.80;44.74
32197;BME280;18697;42.770;23.400;2023-04-28T06:43:53;96061.56;;;10.57;46.73
32197;BME280;18697;42.770;23.400;2023-04-28T06:46:19;96056.47;;;11.17;45.08
32197;BME280;18697;42.770;23.400;2023-04-28T06:48:44;96053.94;;;11.50;46.23
32197;BME280;18697;42.770;23.400;2023-04-28T06:51:09;96054.47;;;11.76;45.48
32197;BME280;18697;42.770;23.400;2023-04-28T06:53:35;96067.97;;;12.14;43.78
32197;BME280;18697;42.770;23.400;2023-04-28T06:56:01;96060.38;;;12.51;44.28
32197;BME280;18697;42.770;23.400;2023-04-28T06:58:27;96058.47;;;12.66;44.95
32197;BME280;18697;42.770;23.400;2023-04-28T07:00:52;96056.59;;;12.72;44.11
32197;BME280;18697;42.770;23.400;2023-04-28T07:03:18;96064.00;;;12.84;43.69
32197;BME280;18697;42.770;23.400;2023-04-28T07:05:43;96059.66;;;12.93;41.08
32197;BME280;18697;42.770;23.400;2023-04-28T07:08:08;96063.78;;;13.06;40.54
32197;BME280;18697;42.770;23.400;2023-04-28T07:10:34;96057.16;;;12.95;40.40
32197;BME280;18697;42.770;23.400;2023-04-28T07:12:59;96056.38;;;13.03;42.24
32197;BME280;18697;42.770;23.400;2023-04-28T07:15:24;96050.91;;;13.18;41.59
32197;BME280;18697;42.770;23.400;2023-04-28T07:17:50;96056.91;;;13.35;41.85
32197;BME280;18697;42.770;23.400;2023-04-28T07:20:15;96041.47;;;13.96;49.05
32197;BME280;18697;42.770;23.400;2023-04-28T07:22:41;96046.53;;;14.60;47.07
32197;BME280;18697;42.770;23.400;2023-04-28T07:25:07;96045.38;;;14.67;40.67
32197;BME280;18697;42.770;23.400;2023-04-28T07:27:32;96046.63;;;14.51;39.05
32197;BME280;18697;42.770;23.400;2023-04-28T07:29:58;96047.72;;;14.83;42.88
32197;BME280;18697;42.770;23.400;2023-04-28T07:32:23;96048.25;;;14.43;37.22
32197;BME280;18697;42.770;23.400;2023-04-28T07:34:49;96036.63;;;14.35;41.46
32197;BME280;18697;42.770;23.400;2023-04-28T07:37:15;96047.94;;;14.41;38.13
32197;BME280;18697;42.770;23.400;2023-04-28T07:39:41;96045.13;;;14.41;41.18
32197;BME280;18697;42.770;23.400;2023-04-28T07:42:06;96042.13;;;14.68;37.54
32197;BME280;18697;42.770;23.400;2023-04-28T07:44:31;96044.19;;;14.44;39.67
32197;BME280;18697;42.770;23.400;2023-04-28T07:47:00;96043.66;;;14.69;39.40
32197;BME280;18697;42.770;23.400;2023-04-28T07:49:27;96039.81;;;14.82;38.74
32197;BME280;18697;42.770;23.400;2023-04-28T07:51:52;96050.59;;;14.74;37.15
32197;BME280;18697;42.770;23.400;2023-04-28T07:54:19;96042.31;;;14.79;37.66
32197;BME280;18697;42.770;23.400;2023-04-28T07:56:45;96052.47;;;14.14;36.92
32197;BME280;18697;42.770;23.400;2023-04-28T07:59:11;96041.69;;;14.90;40.37
32197;BME280;18697;42.770;23.400;2023-04-28T08:01:36;96035.69;;;15.27;38.15
32197;BME280;18697;42.770;23.400;2023-04-28T08:04:01;96050.75;;;15.15;35.53
32197;BME280;18697;42.770;23.400;2023-04-28T08:06:27;96041.31;;;15.62;36.64
32197;BME280;18697;42.770;23.400;2023-04-28T08:08:53;96043.16;;;14.56;35.63
32197;BME280;18697;42.770;23.400;2023-04-28T08:11:19;96043.84;;;14.66;35.26
32197;BME280;18697;42.770;23.400;2023-04-28T08:13:45;96027.06;;;14.81;38.53
32197;BME280;18697;42.770;23.400;2023-04-28T08:16:11;96030.91;;;14.98;38.67
32197;BME280;18697;42.770;23.400;2023-04-28T08:18:37;96032.00;;;15.35;38.80
32197;BME280;18697;42.770;23.400;2023-04-28T08:21:02;96027.06;;;15.80;39.17
32197;BME280;18697;42.770;23.400;2023-04-28T08:23:28;96037.28;;;15.48;37.07
32197;BME280;18697;42.770;23.400;2023-04-28T08:25:55;96038.44;;;14.48;36.77
32197;BME280;18697;42.770;23.400;2023-04-28T08:28:20;96037.66;;;14.08;36.15
32197;BME280;18697;42.770;23.400;2023-04-28T08:30:46;96025.25;;;14.09;39.36
32197;BME280;18697;42.770;23.400;2023-04-28T08:33:11;96023.13;;;14.72;38.86
32197;BME280;18697;42.770;23.400;2023-04-28T08:35:36;96020.47;;;14.98;37.96
32197;BME280;18697;42.770;23.400;2023-04-28T08:38:02;96015.47;;;15.02;39.00
32197;BME280;18697;42.770;23.400;2023-04-28T08:40:27;96015.13;;;15.30;38.63
32197;BME280;18697;42.770;23.400;2023-04-28T08:43:01;96030.69;;;15.66;36.16
32197;BME280;18697;42.770;23.400;2023-04-28T08:45:29;96030.94;;;14.83;33.59
32197;BME280;18697;42.770;23.400;2023-04-28T08:47:56;96027.16;;;15.51;37.28
32197;BME280;18697;42.770;23.400;2023-04-28T08:50:24;96018.00;;;15.70;34.51
32197;BME280;18697;42.770;23.400;2023-04-28T08:52:54;96021.38;;;15.74;33.89
32197;BME280;18697;42.770;23.400;2023-04-28T08:55:21;96010.75;;;15.99;35.81
32197;BME280;18697;42.770;23.400;2023-04-28T08:57:48;96021.59;;;16.32;35.93
32197;BME280;18697;42.770;23.400;2023-04-28T09:00:15;96014.09;;;16.49;35.09
32197;BME280;18697;42.770;23.400;2023-04-28T09:02:41;96010.50;;;16.69;36.67
32197;BME280;18697;42.770;23.400;2023-04-28T09:05:07;96021.53;;;15.86;33.25
32197;BME280;18697;42.770;23.400;2023-04-28T09:07:33;96012.72;;;15.93;32.65
32197;BME280;18697;42.770;23.400;2023-04-28T09:12:40;96006.00;;;16.77;32.79
32197;BME280;18697;42.770;23.400;2023-04-28T09:15:05;96004.81;;;16.63;34.04
32197;BME280;18697;42.770;23.400;2023-04-28T09:17:46;95999.06;;;16.72;32.70
32197;BME280;18697;42.770;23.400;2023-04-28T09:20:22;95998.09;;;16.55;31.77
32197;BME280;18697;42.770;23.400;2023-04-28T09:22:49;96005.19;;;16.25;32.92
32197;BME280;18697;42.770;23.400;2023-04-28T09:25:15;96005.16;;;15.43;33.44
32197;BME280;18697;42.770;23.400;2023-04-28T09:27:41;95996.94;;;15.95;33.87
32197;BME280;18697;42.770;23.400;2023-04-28T09:30:07;95995.13;;;15.37;33.26
32197;BME280;18697;42.770;23.400;2023-04-28T09:32:34;95989.88;;;15.09;34.15
32197;BME280;18697;42.770;23.400;2023-04-28T09:35:00;95972.38;;;15.85;35.70
32197;BME280;18697;42.770;23.400;2023-04-28T09:37:27;95982.00;;;16.24;34.32
32197;BME280;18697;42.770;23.400;2023-04-28T09:39:56;95972.81;;;16.50;32.29
32197;BME280;18697;42.770;23.400;2023-04-28T09:45:06;95966.59;;;16.92;34.24
32197;BME280;18697;42.770;23.400;2023-04-28T09:47:33;95967.31;;;17.24;32.79
32197;BME280;18697;42.770;23.400;2023-04-28T09:50:04;95970.47;;;17.00;32.08
32197;BME280;18697;42.770;23.400;2023-04-28T09:52:32;95961.84;;;17.46;34.35
32197;BME280;18697;42.770;23.400;2023-04-28T09:55:01;95955.66;;;17.79;33.79
32197;BME280;18697;42.770;23.400;2023-04-28T09:57:29;95960.50;;;17.73;31.70
32197;BME280;18697;42.770;23.400;2023-04-28T09:59:56;95944.72;;;17.98;33.94
32197;BME280;18697;42.770;23.400;2023-04-28T10:02:23;95948.56;;;18.00;33.13
32197;BME280;18697;42.770;23.400;2023-04-28T10:04:49;95947.56;;;18.03;31.70
32197;BME280;18697;42.770;23.400;2023-04-28T10:07:17;95950.31;;;17.81;29.07
32197;BME280;18697;42.770;23.400;2023-04-28T10:09:44;95957.00;;;18.00;30.84
32197;BME280;18697;42.770;23.400;2023-04-28T10:12:22;95941.13;;;17.92;32.07
32197;BME280;18697;42.770;23.400;2023-04-28T10:14:49;95952.28;;;17.27;30.24
32197;BME280;18697;42.770;23.400;2023-04-28T10:17:19;95945.50;;;16.70;32.84
32197;BME280;18697;42.770;23.400;2023-04-28T10:19:46;95947.75;;;16.40;33.24
32197;BME280;18697;42.770;23.400;2023-04-28T10:25:25;95939.53;;;16.63;32.41
32197;BME280;18697;42.770;23.400;2023-04-28T10:27:51;95929.69;;;17.04;33.30
32197;BME280;18697;42.770;23.400;2023-04-28T10:30:19;95925.50;;;17.31;33.78
32197;BME280;18697;42.770;23.400;2023-04-28T10:32:45;95923.88;;;17.62;32.70
32197;BME280;18697;42.770;23.400;2023-04-28T10:38:17;95915.06;;;17.80;31.39
32197;BME280;18697;42.770;23.400;2023-04-28T10:40:44;95913.84;;;18.09;30.70
32197;BME280;18697;42.770;23.400;2023-04-28T10:43:11;95908.78;;;18.30;30.97
32197;BME280;18697;42.770;23.400;2023-04-28T11:08:54;95875.72;;;17.80;30.82
32197;BME280;18697;42.770;23.400;2023-04-28T11:11:25;95883.44;;;18.02;30.01
32197;BME280;18697;42.770;23.400;2023-04-28T11:13:55;95886.47;;;17.98;30.33
32197;BME280;18697;42.770;23.400;2023-04-28T11:16:53;95872.78;;;17.52;31.30
32197;BME280;18697;42.770;23.400;2023-04-28T11:21:46;95862.53;;;18.53;32.32
32197;BME280;18697;42.770;23.400;2023-04-28T11:24:12;95858.97;;;18.69;31.86
32197;BME280;18697;42.770;23.400;2023-04-28T11:26:38;95865.09;;;18.79;31.15
32197;BME280;18697;42.770;23.400;2023-04-28T11:29:04;95863.78;;;18.24;30.43
32197;BME280;18697;42.770;23.400;2023-04-28T11:31:30;95864.47;;;17.86;30.00
32197;BME280;18697;42.770;23.400;2023-04-28T11:36:29;95853.53;;;18.04;29.74
32197;BME280;18697;42.770;23.400;2023-04-28T11:38:56;95848.44;;;18.14;29.88
32197;BME280;18697;42.770;23.400;2023-04-28T11:41:22;95842.84;;;18.53;31.24
32197;BME280;18697;42.770;23.400;2023-04-28T11:43:48;95828.50;;;18.79;32.79
32197;BME280;18697;42.770;23.400;2023-04-28T11:46:21;95829.00;;;18.89;31.56
32197;BME280;18697;42.770;23.400;2023-04-28T11:48:48;95830.50;;;19.07;31.05
32197;BME280;18697;42.770;23.400;2023-04-28T11:51:34;95835.50;;;19.42;30.45
32197;BME280;18697;42.770;23.400;2023-04-28T11:54:00;95831.63;;;19.56;29.95
32197;BME280;18697;42.770;23.400;2023-04-28T11:56:27;95828.31;;;19.52;30.21
32197;BME280;18697;42.770;23.400;2023-04-28T11:59:03;95831.38;;;19.48;29.05
32197;BME280;18697;42.770;23.400;2023-04-28T12:01:30;95829.31;;;19.49;29.73
32197;BME280;18697;42.770;23.400;2023-04-28T12:03:56;95831.38;;;19.48;30.58
32197;BME280;18697;42.770;23.400;2023-04-28T12:06:21;95834.34;;;19.09;29.20
32197;BME280;18697;42.770;23.400;2023-04-28T12:08:47;95833.72;;;19.38;30.79
32197;BME280;18697;42.770;23.400;2023-04-28T12:11:13;95823.56;;;19.24;28.57
32197;BME280;18697;42.770;23.400;2023-04-28T12:13:40;95812.03;;;19.22;30.49
32197;BME280;18697;42.770;23.400;2023-04-28T12:16:07;95800.91;;;19.47;30.93
32197;BME280;18697;42.770;23.400;2023-04-28T12:18:34;95793.44;;;19.60;31.79
32197;BME280;18697;42.770;23.400;2023-04-28T12:21:00;95792.38;;;19.69;30.68
32197;BME280;18697;42.770;23.400;2023-04-28T12:23:34;95794.22;;;19.61;30.96
32197;BME280;18697;42.770;23.400;2023-04-28T12:26:00;95788.22;;;19.81;31.01
32197;BME280;18697;42.770;23.400;2023-04-28T12:28:39;95784.31;;;19.90;31.07
32197;BME280;18697;42.770;23.400;2023-04-28T12:31:06;95775.19;;;20.08;30.97
32197;BME280;18697;42.770;23.400;2023-04-28T12:33:35;95780.69;;;19.43;30.06
32197;BME280;18697;42.770;23.400;2023-04-28T12:36:05;95787.28;;;19.62;29.45
32197;BME280;18697;42.770;23.400;2023-04-28T12:38:31;95791.22;;;19.36;29.25
32197;BME280;18697;42.770;23.400;2023-04-28T12:40:57;95782.19;;;18.97;28.55
32197;BME280;18697;42.770;23.400;2023-04-28T12:43:23;95782.00;;;18.45;30.51
32197;BME280;18697;42.770;23.400;2023-04-28T12:45:49;95763.31;;;18.75;33.12
32197;BME280;18697;42.770;23.400;2023-04-28T12:48:15;95763.97;;;19.09;32.56
32197;BME280;18697;42.770;23.400;2023-04-28T12:50:40;95760.06;;;19.29;30.79
32197;BME280;18697;42.770;23.400;2023-04-28T12:53:05;95762.03;;;19.40;30.25
32197;BME280;18697;42.770;23.400;2023-04-28T12:55:31;95748.41;;;19.55;33.15
32197;BME280;18697;42.770;23.400;2023-04-28T12:57:56;95748.59;;;19.68;32.14
32197;BME280;18697;42.770;23.400;2023-04-28T13:00:22;95743.69;;;19.74;31.93
32197;BME280;18697;42.770;23.400;2023-04-28T13:02:48;95743.94;;;19.76;31.42
32197;BME280;18697;42.770;23.400;2023-04-28T13:05:14;95753.03;;;19.52;29.89
32197;BME280;18697;42.770;23.400;2023-04-28T13:07:39;95748.09;;;19.64;31.05
32197;BME280;18697;42.770;23.400;2023-04-28T13:10:05;95738.00;;;19.80;31.33
32197;BME280;18697;42.770;23.400;2023-04-28T13:12:32;95741.03;;;19.87;31.11
32197;BME280;18697;42.770;23.400;2023-04-28T13:14:57;95745.63;;;19.90;29.29
32197;BME280;18697;42.770;23.400;2023-04-28T13:17:25;95755.13;;;19.35;28.12
32197;BME280;18697;42.770;23.400;2023-04-28T13:19:53;95747.81;;;19.15;30.34
32197;BME280;18697;42.770;23.400;2023-04-28T13:22:19;95752.63;;;17.73;29.37
32197;BME280;18697;42.770;23.400;2023-04-28T13:24:46;95745.66;;;17.57;30.40
32197;BME280;18697;42.770;23.400;2023-04-28T13:27:12;95737.75;;;17.56;31.71
32197;BME280;18697;42.770;23.400;2023-04-28T13:29:38;95732.88;;;17.39;30.47